sensor_id;sensor_type;location;lat;lon;timestamp;pressure;altitude;pressure_sealevel;temperature;humidity
56402;BME280;42299;35.160;26.100;2023-04-21T00:00:12;100879.34;;;13.10;100.00
56402;BME280;42299;35.160;26.100;2023-04-21T00:01:35;100872.25;;;13.09;100.00
56402;BME280;42299;35.160;26.100;2023-04-21T00:02:56;100879.31;;;13.07;100.00
56402;BME280;42299;35.160;26.100;2023-04-21T00:04:19;100874.88;;;13.06;100.00
56402;BME280;42299;35.160;26.100;2023-04-21T00:05:40;100874.03;;;13.06;100.00
56402;BME280;42299;35.160;26.100;2023-04-21T00:07:03;100874.88;;;13.05;100.00
56402;BME280;42299;35.160;26.100;2023-04-21T00:08:24;100872.25;;;13.05;100.00
56402;BME280;42299;35.160;26.100;2023-04-21T00:09:47;100870.47;;;13.04;100.00
56402;BME280;42299;35.160;26.100;2023-04-21T00:11:09;100880.16;;;13.02;100.00
56402;BME280;42299;35.160;26.100;2023-04-21T00:12:31;100879.25;;;13.01;100.00
56402;BME280;42299;35.160;26.100;2023-04-21T00:13:55;100874.84;;;13.02;100.00
56402;BME280;42299;35.160;26.100;2023-04-21T00:15:17;100871.34;;;13.03;100.00
56402;BME280;42299;35.160;26.100;2023-04-21T00:16:38;100862.47;;;13.01;100.00
56402;BME280;42299;35.160;26.100;2023-04-21T00:18:00;100867.78;;;12.98;100.00
56402;BME280;42299;35.160;26.100;2023-04-21T00:19:23;100872.19;;;12.99;100.00
56402;BME280;42299;35.160;26.100;2023-04-21T00:20:44;100873.06;;;12.98;100.00
56402;BME280;42299;35.160;26.100;2023-04-21T00:22:06;100866.84;;;12.96;100.00
56402;BME280;42299;35.160;26.100;2023-04-21T00:23:31;100870.38;;;12.95;100.00
56402;BME280;42299;35.160;26.100;2023-04-21T00:24:54;100866.84;;;12.96;100.00
56402;BME280;42299;35.160;26.100;2023-04-21T00:26:15;100867.75;;;12.96;100.00
56402;BME280;42299;35.160;26.100;2023-04-21T00:27:39;100868.66;;;12.97;100.00
56402;BME280;42299;35.160;26.100;2023-04-21T00:29:03;100859.81;;;12.98;100.00
56402;BME280;42299;35.160;26.100;2023-04-21T00:30:25;100857.16;;;12.98;100.00
56402;BME280;42299;35.160;26.100;2023-04-21T00:31:47;100858.91;;;12.96;100.00
56402;BME280;42299;35.160;26.100;2023-04-21T00:33:10;100853.59;;;12.94;100.00
56402;BME280;42299;35.160;26.100;2023-04-21T00:34:31;100846.53;;;12.95;100.00
56402;BME280;42299;35.160;26.100;2023-04-21T00:35:53;100841.22;;;12.93;100.00
56402;BME280;42299;35.160;26.100;2023-04-21T00:37:18;100835.03;;;12.90;100.00
56402;BME280;42299;35.160;26.100;2023-04-21T00:38:41;100836.75;;;12.85;100.00
56402;BME280;42299;35.160;26.100;2023-04-21T00:40:04;100836.72;;;12.78;100.00
56402;BME280;42299;35.160;26.100;2023-04-21T00:41:27;100843.72;;;12.73;100.00
56402;BME280;42299;35.160;26.100;2023-04-21T00:42:50;100841.91;;;12.68;100.00
56402;BME280;42299;35.160;26.100;2023-04-21T00:44:13;100837.53;;;12.71;100.00
56402;BME280;42299;35.160;26.100;2023-04-21T00:45:35;100835.78;;;12.75;100.00
56402;BME280;42299;35.160;26.100;2023-04-21T00:46:56;100834.94;;;12.77;100.00
56402;BME280;42299;35.160;26.100;2023-04-21T00:48:19;100828.75;;;12.80;100.00
56402;BME280;42299;35.160;26.100;2023-04-21T00:49:40;100829.66;;;12.81;100.00
56402;BME280;42299;35.160;26.100;2023-04-21T00:51:03;100831.41;;;12.80;100.00
56402;BME280;42299;35.160;26.100;2023-04-21T00:52:26;100830.53;;;12.78;100.00
56402;BME280;42299;35.160;26.100;2023-04-21T00:53:48;100834.94;;;12.77;100.00
56402;BME280;42299;35.160;26.100;2023-04-21T00:55:11;100833.16;;;12.76;100.00
56402;BME280;42299;35.160;26.100;2023-04-21T00:56:36;100844.59;;;12.74;100.00
56402;BME280;42299;35.160;26.100;2023-04-21T00:57:59;100847.28;;;12.75;100.00
56402;BME280;42299;35.160;26.100;2023-04-21T00:59:23;100840.19;;;12.74;100.00
56402;BME280;42299;35.160;26.100;2023-04-21T01:00:45;100841.09;;;12.72;100.00
56402;BME280;42299;35.160;26.100;2023-04-21T01:02:08;100839.28;;;12.69;100.00
56402;BME280;42299;35.160;26.100;2023-04-21T01:03:30;100833.97;;;12.68;100.00
56402;BME280;42299;35.160;26.100;2023-04-21T01:04:51;100832.19;;;12.67;100.00
56402;BME280;42299;35.160;26.100;2023-04-21T01:06:14;100826.03;;;12.66;100.00
56402;BME280;42299;35.160;26.100;2023-04-21T01:07:35;100826.91;;;12.65;100.00
56402;BME280;42299;35.160;26.100;2023-04-21T01:08:58;100823.34;;;12.63;100.00
56402;BME280;42299;35.160;26.100;2023-04-21T01:10:19;100823.38;;;12.65;100.00
56402;BME280;42299;35.160;26.100;2023-04-21T01:11:41;100822.47;;;12.64;100.00
56402;BME280;42299;35.160;26.100;2023-04-21T01:13:02;100823.38;;;12.66;100.00
56402;BME280;42299;35.160;26.100;2023-04-21T01:14:26;100823.44;;;12.72;100.00
56402;BME280;42299;35.160;26.100;2023-04-21T01:15:48;100829.66;;;12.81;100.00
56402;BME280;42299;35.160;26.100;2023-04-21T01:17:11;100820.91;;;12.91;100.00
56402;BME280;42299;35.160;26.100;2023-04-21T01:18:32;100826.25;;;12.98;100.00
56402;BME280;42299;35.160;26.100;2023-04-21T01:19:54;100823.66;;;13.07;100.00
56402;BME280;42299;35.160;26.100;2023-04-21T01:21:17;100823.75;;;13.15;100.00
56402;BME280;42299;35.160;26.100;2023-04-21T01:22:41;100836.16;;;13.22;100.00
56402;BME280;42299;35.160;26.100;2023-04-21T01:24:06;100822.94;;;13.25;100.00
56402;BME280;42299;35.160;26.100;2023-04-21T01:25:27;100823.81;;;13.29;100.00
56402;BME280;42299;35.160;26.100;2023-04-21T01:26:50;100815.88;;;13.30;100.00
56402;BME280;42299;35.160;26.100;2023-04-21T01:28:11;100817.66;;;13.31;100.00
56402;BME280;42299;35.160;26.100;2023-04-21T01:29:34;100820.31;;;13.31;100.00
56402;BME280;42299;35.160;26.100;2023-04-21T01:30:55;100814.13;;;13.34;100.00
56402;BME280;42299;35.160;26.100;2023-04-21T01:32:18;100818.59;;;13.38;100.00
56402;BME280;42299;35.160;26.100;2023-04-21T01:33:41;100824.75;;;13.40;100.00
56402;BME280;42299;35.160;26.100;2023-04-21T01:35:05;100824.78;;;13.41;100.00
56402;BME280;42299;35.160;26.100;2023-04-21T01:36:26;100821.25;;;13.42;100.00
56402;BME280;42299;35.160;26.100;2023-04-21T01:37:50;100826.56;;;13.48;100.00
56402;BME280;42299;35.160;26.100;2023-04-21T01:39:13;100821.28;;;13.54;100.00
56402;BME280;42299;35.160;26.100;2023-04-21T01:40:35;100823.97;;;13.61;100.00
56402;BME280;42299;35.160;26.100;2023-04-21T01:41:57;100825.75;;;13.66;100.00
56402;BME280;42299;35.160;26.100;2023-04-21T01:43:22;100824.03;;;13.71;100.00
56402;BME280;42299;35.160;26.100;2023-04-21T01:44:45;100824.91;;;13.73;100.00
56402;BME280;42299;35.160;26.100;2023-04-21T01:46:06;100826.69;;;13.74;100.00
56402;BME280;42299;35.160;26.100;2023-04-21T01:47:31;100830.25;;;13.78;100.00
56402;BME280;42299;35.160;26.100;2023-04-21T01:48:54;100825.81;;;13.81;100.00
56402;BME280;42299;35.160;26.100;2023-04-21T01:50:16;100829.34;;;13.85;100.00
56402;BME280;42299;35.160;26.100;2023-04-21T01:51:38;100825.84;;;13.89;100.00
56402;BME280;42299;35.160;26.100;2023-04-21T01:53:01;100827.63;;;13.93;100.00
56402;BME280;42299;35.160;26.100;2023-04-21T01:54:24;100824.09;;;13.94;100.00
56402;BME280;42299;35.160;26.100;2023-04-21T01:55:46;100814.38;;;13.96;100.00
56402;BME280;42299;35.160;26.100;2023-04-21T01:57:08;100821.44;;;14.00;100.00
56402;BME280;42299;35.160;26.100;2023-04-21T01:58:31;100812.59;;;14.01;100.00
56402;BME280;42299;35.160;26.100;2023-04-21T01:59:54;100818.81;;;14.03;100.00
56402;BME280;42299;35.160;26.100;2023-04-21T02:01:16;100816.16;;;14.03;100.00
56402;BME280;42299;35.160;26.100;2023-04-21T02:02:37;100818.81;;;14.03;100.00
56402;BME280;42299;35.160;26.100;2023-04-21T02:03:59;100807.31;;;14.04;100.00
56402;BME280;42299;35.160;26.100;2023-04-21T02:05:21;100814.38;;;14.05;100.00
56402;BME280;42299;35.160;26.100;2023-04-21T02:06:43;100812.63;;;14.07;100.00
56402;BME280;42299;35.160;26.100;2023-04-21T02:08:06;100815.31;;;14.10;100.00
56402;BME280;42299;35.160;26.100;2023-04-21T02:09:28;100812.63;;;14.12;100.00
56402;BME280;42299;35.160;26.100;2023-04-21T02:10:51;100810.84;;;14.06;100.00
56402;BME280;42299;35.160;26.100;2023-04-21T02:12:12;100804.66;;;14.06;100.00
56402;BME280;42299;35.160;26.100;2023-04-21T02:13:36;100801.13;;;14.07;100.00
56402;BME280;42299;35.160;26.100;2023-04-21T02:14:58;100809.09;;;14.08;100.00
56402;BME280;42299;35.160;26.100;2023-04-21T02:16:21;100803.78;;;14.07;100.00
56402;BME280;42299;35.160;26.100;2023-04-21T02:17:45;100799.34;;;14.06;100.00
56402;BME280;42299;35.160;26.100;2023-04-21T02:19:08;100802.00;;;14.07;100.00
56402;BME280;42299;35.160;26.100;2023-04-21T02:20:29;100796.72;;;14.10;100.00
56402;BME280;42299;35.160;26.100;2023-04-21T02:21:51;100802.88;;;14.12;100.00
56402;BME280;42299;35.160;26.100;2023-04-21T02:23:17;100798.47;;;14.13;100.00
56402;BME280;42299;35.160;26.100;2023-04-21T02:24:41;100795.81;;;14.13;100.00
56402;BME280;42299;35.160;26.100;2023-04-21T02:26:02;100790.50;;;14.13;100.00
56402;BME280;42299;35.160;26.100;2023-04-21T02:27:26;100792.28;;;14.14;100.00
56402;BME280;42299;35.160;26.100;2023-04-21T02:28:48;100794.94;;;14.15;100.00
56402;BME280;42299;35.160;26.100;2023-04-21T02:30:11;100795.81;;;14.14;100.00
56402;BME280;42299;35.160;26.100;2023-04-21T02:31:35;100798.47;;;14.11;100.00
56402;BME280;42299;35.160;26.100;2023-04-21T02:32:57;100800.25;;;14.11;100.00
56402;BME280;42299;35.160;26.100;2023-04-21T02:34:18;100802.91;;;14.11;100.00
56402;BME280;42299;35.160;26.100;2023-04-21T02:35:41;100804.66;;;14.09;100.00
56402;BME280;42299;35.160;26.100;2023-04-21T02:37:03;100807.31;;;14.07;100.00
56402;BME280;42299;35.160;26.100;2023-04-21T02:38:27;100805.53;;;14.03;100.00
56402;BME280;42299;35.160;26.100;2023-04-21T02:39:49;100811.72;;;13.96;100.00
56402;BME280;42299;35.160;26.100;2023-04-21T02:41:11;100811.69;;;13.91;100.00
56402;BME280;42299;35.160;26.100;2023-04-21T02:42:34;100810.81;;;13.88;100.00
56402;BME280;42299;35.160;26.100;2023-04-21T02:43:55;100805.47;;;13.85;100.00
56402;BME280;42299;35.160;26.100;2023-04-21T02:45:17;100812.56;;;13.83;100.00
56402;BME280;42299;35.160;26.100;2023-04-21T02:46:40;100813.41;;;13.79;100.00
56402;BME280;42299;35.160;26.100;2023-04-21T02:48:01;100811.66;;;13.75;100.00
56402;BME280;42299;35.160;26.100;2023-04-21T02:49:24;100816.06;;;13.71;100.00
56402;BME280;42299;35.160;26.100;2023-04-21T02:50:45;100811.63;;;13.67;100.00
56402;BME280;42299;35.160;26.100;2023-04-21T02:52:08;100812.50;;;13.65;100.00
56402;BME280;42299;35.160;26.100;2023-04-21T02:53:31;100812.47;;;13.62;100.00
56402;BME280;42299;35.160;26.100;2023-04-21T02:54:54;100807.19;;;13.59;100.00
56402;BME280;42299;35.160;26.100;2023-04-21T02:56:15;100812.47;;;13.55;100.00
56402;BME280;42299;35.160;26.100;2023-04-21T02:57:39;100823.94;;;13.53;100.00
56402;BME280;42299;35.160;26.100;2023-04-21T02:59:01;100818.63;;;13.50;100.00
56402;BME280;42299;35.160;26.100;2023-04-21T03:00:23;100828.31;;;13.46;100.00
56402;BME280;42299;35.160;26.100;2023-04-21T03:01:45;100820.38;;;13.43;100.00
56402;BME280;42299;35.160;26.100;2023-04-21T03:03:09;100825.66;;;13.42;100.00
56402;BME280;42299;35.160;26.100;2023-04-21T03:04:31;100830.06;;;13.41;100.00
56402;BME280;42299;35.160;26.100;2023-04-21T03:05:56;100834.47;;;13.41;100.00
56402;BME280;42299;35.160;26.100;2023-04-21T03:07:18;100832.72;;;13.38;100.00
56402;BME280;42299;35.160;26.100;2023-04-21T03:08:42;100843.31;;;13.37;100.00
56402;BME280;42299;35.160;26.100;2023-04-21T03:10:05;100838.88;;;13.34;100.00
56402;BME280;42299;35.160;26.100;2023-04-21T03:11:27;100847.72;;;13.32;100.00
56402;BME280;42299;35.160;26.100;2023-04-21T03:12:48;100846.81;;;13.30;100.00
56402;BME280;42299;35.160;26.100;2023-04-21T03:14:10;100849.44;;;13.27;100.00
56402;BME280;42299;35.160;26.100;2023-04-21T03:15:32;100848.56;;;13.25;100.00
56402;BME280;42299;35.160;26.100;2023-04-21T03:16:55;100848.53;;;13.23;100.00
56402;BME280;42299;35.160;26.100;2023-04-21T03:18:18;100860.00;;;13.21;100.00
56402;BME280;42299;35.160;26.100;2023-04-21T03:19:40;100860.00;;;13.19;100.00
56402;BME280;42299;35.160;26.100;2023-04-21T03:21:01;100864.41;;;13.17;100.00
56402;BME280;42299;35.160;26.100;2023-04-21T03:22:24;100860.84;;;13.15;100.00
56402;BME280;42299;35.160;26.100;2023-04-21T03:23:48;100853.75;;;13.14;100.00
56402;BME280;42299;35.160;26.100;2023-04-21T03:25:09;100862.56;;;13.11;100.00
56402;BME280;42299;35.160;26.100;2023-04-21T03:26:32;100861.69;;;13.11;100.00
56402;BME280;42299;35.160;26.100;2023-04-21T03:27:54;100859.91;;;13.11;100.00
56402;BME280;42299;35.160;26.100;2023-04-21T03:29:17;100863.47;;;13.13;100.00
56402;BME280;42299;35.160;26.100;2023-04-21T03:30:38;100864.38;;;13.15;100.00
56402;BME280;42299;35.160;26.100;2023-04-21T03:32:00;100872.34;;;13.17;100.00
56402;BME280;42299;35.160;26.100;2023-04-21T03:33:22;100868.81;;;13.16;100.00
56402;BME280;42299;35.160;26.100;2023-04-21T03:34:44;100871.44;;;13.15;100.00
56402;BME280;42299;35.160;26.100;2023-04-21T03:36:06;100873.19;;;13.13;100.00
56402;BME280;42299;35.160;26.100;2023-04-21T03:37:29;100869.63;;;13.11;100.00
56402;BME280;42299;35.160;26.100;2023-04-21T03:38:52;100874.03;;;13.09;100.00
56402;BME280;42299;35.160;26.100;2023-04-21T03:40:14;100880.19;;;13.08;100.00
56402;BME280;42299;35.160;26.100;2023-04-21T03:41:37;100871.34;;;13.07;100.00
56402;BME280;42299;35.160;26.100;2023-04-21T03:42:59;100868.72;;;13.06;100.00
56402;BME280;42299;35.160;26.100;2023-04-21T03:44:24;100873.13;;;13.07;100.00
56402;BME280;42299;35.160;26.100;2023-04-21T03:45:45;100879.31;;;13.09;100.00
56402;BME280;42299;35.160;26.100;2023-04-21T03:47:08;100882.94;;;13.12;100.00
56402;BME280;42299;35.160;26.100;2023-04-21T03:48:30;100882.03;;;13.13;100.00
56402;BME280;42299;35.160;26.100;2023-04-21T03:49:51;100887.34;;;13.15;100.00
56402;BME280;42299;35.160;26.100;2023-04-21T03:51:14;100885.59;;;13.15;100.00
56402;BME280;42299;35.160;26.100;2023-04-21T03:52:36;100886.53;;;13.19;100.00
56402;BME280;42299;35.160;26.100;2023-04-21T03:53:59;100898.03;;;13.24;100.00
56402;BME280;42299;35.160;26.100;2023-04-21T03:55:21;100896.28;;;13.29;100.00
56402;BME280;42299;35.160;26.100;2023-04-21T03:56:43;100904.28;;;13.35;100.00
56402;BME280;42299;35.160;26.100;2023-04-21T03:58:06;100912.25;;;13.40;100.00
56402;BME280;42299;35.160;26.100;2023-04-21T03:59:27;100918.50;;;13.46;100.00
56402;BME280;42299;35.160;26.100;2023-04-21T04:00:50;100922.09;;;13.51;100.00
56402;BME280;42299;35.160;26.100;2023-04-21T04:02:11;100920.34;;;13.56;100.00
56402;BME280;42299;35.160;26.100;2023-04-21T04:03:33;100923.03;;;13.63;100.00
56402;BME280;42299;35.160;26.100;2023-04-21T04:04:56;100925.72;;;13.70;100.00
56402;BME280;42299;35.160;26.100;2023-04-21T04:06:17;100926.66;;;13.78;100.00
56402;BME280;42299;35.160;26.100;2023-04-21T04:07:39;100924.91;;;13.86;100.00
56402;BME280;42299;35.160;26.100;2023-04-21T04:09:03;100923.19;;;13.96;100.00
56402;BME280;42299;35.160;26.100;2023-04-21T04:10:26;100927.66;;;14.06;100.00
56402;BME280;42299;35.160;26.100;2023-04-21T04:11:47;100921.50;;;14.16;100.00
56402;BME280;42299;35.160;26.100;2023-04-21T04:13:09;100930.38;;;14.26;100.00
56402;BME280;42299;35.160;26.100;2023-04-21T04:14:31;100925.97;;;14.34;100.00
56402;BME280;42299;35.160;26.100;2023-04-21T04:15:53;100922.47;;;14.40;100.00
56402;BME280;42299;35.160;26.100;2023-04-21T04:17:16;100922.50;;;14.46;100.00
56402;BME280;42299;35.160;26.100;2023-04-21T04:18:37;100922.53;;;14.50;100.00
56402;BME280;42299;35.160;26.100;2023-04-21T04:19:59;100921.66;;;14.60;100.00
56402;BME280;42299;35.160;26.100;2023-04-21T04:21:21;100916.34;;;14.68;100.00
56402;BME280;42299;35.160;26.100;2023-04-21T04:22:43;100914.56;;;14.79;100.00
56402;BME280;42299;35.160;26.100;2023-04-21T04:24:07;100919.91;;;14.90;100.00
56402;BME280;42299;35.160;26.100;2023-04-21T04:25:31;100918.13;;;14.99;100.00
56402;BME280;42299;35.160;26.100;2023-04-21T04:26:54;100915.50;;;15.08;100.00
56402;BME280;42299;35.160;26.100;2023-04-21T04:28:17;100913.69;;;15.12;100.00
56402;BME280;42299;35.160;26.100;2023-04-21T04:29:42;100908.38;;;15.16;100.00
56402;BME280;42299;35.160;26.100;2023-04-21T04:31:04;100913.69;;;15.20;100.00
56402;BME280;42299;35.160;26.100;2023-04-21T04:32:27;100909.28;;;15.22;100.00
56402;BME280;42299;35.160;26.100;2023-04-21T04:33:48;100907.47;;;15.25;100.00
56402;BME280;42299;35.160;26.100;2023-04-21T04:35:11;100917.22;;;15.32;100.00
56402;BME280;42299;35.160;26.100;2023-04-21T04:36:34;100918.09;;;15.40;100.00
56402;BME280;42299;35.160;26.100;2023-04-21T04:37:55;100921.66;;;15.47;100.00
56402;BME280;42299;35.160;26.100;2023-04-21T04:39:20;100921.63;;;15.51;100.00
56402;BME280;42299;35.160;26.100;2023-04-21T04:40:41;100917.19;;;15.52;100.00
56402;BME280;42299;35.160;26.100;2023-04-21T04:42:05;100923.44;;;15.56;100.00
56402;BME280;42299;35.160;26.100;2023-04-21T04:43:29;100927.00;;;15.54;100.00
56402;BME280;42299;35.160;26.100;2023-04-21T04:44:53;100920.72;;;15.49;100.00
56402;BME280;42299;35.160;26.100;2023-04-21T04:46:16;100930.50;;;15.43;100.00
56402;BME280;42299;35.160;26.100;2023-04-21T04:47:40;100926.97;;;15.30;100.00
56402;BME280;42299;35.160;26.100;2023-04-21T04:49:02;100925.22;;;15.17;100.00
56402;BME280;42299;35.160;26.100;2023-04-21T04:50:24;100934.09;;;15.07;100.00
56402;BME280;42299;35.160;26.100;2023-04-21T04:51:46;100932.31;;;15.00;100.00
56402;BME280;42299;35.160;26.100;2023-04-21T04:53:08;100923.47;;;15.02;100.00
56402;BME280;42299;35.160;26.100;2023-04-21T04:54:31;100942.06;;;15.11;100.00
56402;BME280;42299;35.160;26.100;2023-04-21T04:55:54;100942.06;;;15.21;100.00
56402;BME280;42299;35.160;26.100;2023-04-21T04:57:15;100943.81;;;15.32;100.00
56402;BME280;42299;35.160;26.100;2023-04-21T04:58:37;100947.34;;;15.49;100.00
56402;BME280;42299;35.160;26.100;2023-04-21T05:00:00;100944.69;;;15.66;100.00
56402;BME280;42299;35.160;26.100;2023-04-21T05:01:22;100944.66;;;15.84;100.00
56402;BME280;42299;35.160;26.100;2023-04-21T05:02:49;100944.59;;;16.01;100.00
56402;BME280;42299;35.160;26.100;2023-04-21T05:04:12;100943.63;;;16.20;100.00
56402;BME280;42299;35.160;26.100;2023-04-21T05:05:36;100947.97;;;16.40;100.00
56402;BME280;42299;35.160;26.100;2023-04-21T05:06:57;100941.66;;;16.57;100.00
56402;BME280;42299;35.160;26.100;2023-04-21T05:08:19;100937.16;;;16.73;100.00
56402;BME280;42299;35.160;26.100;2023-04-21T05:09:43;100945.06;;;16.85;100.00
56402;BME280;42299;35.160;26.100;2023-04-21T05:11:06;100936.97;;;16.99;100.00
56402;BME280;42299;35.160;26.100;2023-04-21T05:12:28;100948.38;;;17.16;100.00
56402;BME280;42299;35.160;26.100;2023-04-21T05:13:50;100950.00;;;17.32;100.00
56402;BME280;42299;35.160;26.100;2023-04-21T05:15:13;100951.63;;;17.51;100.00
56402;BME280;42299;35.160;26.100;2023-04-21T05:16:35;100940.78;;;17.70;100.00
56402;BME280;42299;35.160;26.100;2023-04-21T05:17:56;100945.91;;;17.86;100.00
56402;BME280;42299;35.160;26.100;2023-04-21T05:19:19;100943.06;;;18.02;100.00
56402;BME280;42299;35.160;26.100;2023-04-21T05:20:41;100948.25;;;18.17;100.00
56402;BME280;42299;35.160;26.100;2023-04-21T05:22:02;100940.97;;;18.28;100.00
56402;BME280;42299;35.160;26.100;2023-04-21T05:23:26;100944.34;;;18.42;100.00
56402;BME280;42299;35.160;26.100;2023-04-21T05:24:49;100936.16;;;18.56;100.00
56402;BME280;42299;35.160;26.100;2023-04-21T05:26:11;100937.75;;;18.67;100.00
56402;BME280;42299;35.160;26.100;2023-04-21T05:27:33;100940.25;;;18.80;100.00
56402;BME280;42299;35.160;26.100;2023-04-21T05:28:55;100940.94;;;18.92;100.00
56402;BME280;42299;35.160;26.100;2023-04-21T05:30:18;100941.69;;;19.02;100.00
56402;BME280;42299;35.160;26.100;2023-04-21T05:31:40;100940.69;;;19.09;100.00
56402;BME280;42299;35.160;26.100;2023-04-21T05:33:03;100931.59;;;19.18;100.00
56402;BME280;42299;35.160;26.100;2023-04-21T05:34:25;100934.88;;;19.35;100.00
56402;BME280;42299;35.160;26.100;2023-04-21T05:35:47;100930.22;;;19.49;100.00
56402;BME280;42299;35.160;26.100;2023-04-21T05:37:10;100937.06;;;19.64;100.00
56402;BME280;42299;35.160;26.100;2023-04-21T05:38:32;100932.31;;;19.78;100.00
56402;BME280;42299;35.160;26.100;2023-04-21T05:39:56;100926.69;;;19.92;100.00
56402;BME280;42299;35.160;26.100;2023-04-21T05:41:18;100928.16;;;20.08;100.00
56402;BME280;42299;35.160;26.100;2023-04-21T05:42:42;100927.88;;;20.21;100.00
56402;BME280;42299;35.160;26.100;2023-04-21T05:44:04;100924.94;;;20.32;100.00
56402;BME280;42299;35.160;26.100;2023-04-21T05:45:27;100921.13;;;20.44;100.00
56402;BME280;42299;35.160;26.100;2023-04-21T05:46:49;100925.19;;;20.61;100.00
56402;BME280;42299;35.160;26.100;2023-04-21T05:48:11;100922.13;;;20.78;100.00
56402;BME280;42299;35.160;26.100;2023-04-21T05:49:33;100919.94;;;20.94;100.00
56402;BME280;42299;35.160;26.100;2023-04-21T05:50:56;100917.13;;;21.00;100.00
56402;BME280;42299;35.160;26.100;2023-04-21T05:52:18;100920.47;;;21.09;100.00
56402;BME280;42299;35.160;26.100;2023-04-21T05:53:41;100921.06;;;21.22;100.00
56402;BME280;42299;35.160;26.100;2023-04-21T05:55:05;100912.66;;;21.36;100.00
56402;BME280;42299;35.160;26.100;2023-04-21T05:56:28;100916.88;;;21.46;100.00
56402;BME280;42299;35.160;26.100;2023-04-21T05:57:50;100916.66;;;21.54;100.00
56402;BME280;42299;35.160;26.100;2023-04-21T05:59:12;100919.16;;;21.60;100.00
56402;BME280;42299;35.160;26.100;2023-04-21T06:00:33;100919.97;;;21.63;100.00
56402;BME280;42299;35.160;26.100;2023-04-21T06:01:56;100920.72;;;21.68;100.00
56402;BME280;42299;35.160;26.100;2023-04-21T06:03:18;100915.19;;;21.74;100.00
56402;BME280;42299;35.160;26.100;2023-04-21T06:04:41;100920.44;;;21.79;100.00
56402;BME280;42299;35.160;26.100;2023-04-21T06:06:03;100914.94;;;21.83;100.00
56402;BME280;42299;35.160;26.100;2023-04-21T06:07:26;100916.56;;;21.89;100.00
56402;BME280;42299;35.160;26.100;2023-04-21T06:08:48;100919.06;;;21.97;100.00
56402;BME280;42299;35.160;26.100;2023-04-21T06:10:12;100915.25;;;22.05;100.00
56402;BME280;42299;35.160;26.100;2023-04-21T06:11:34;100914.97;;;22.14;100.00
56402;BME280;42299;35.160;26.100;2023-04-21T06:12:56;100922.75;;;22.23;100.00
56402;BME280;42299;35.160;26.100;2023-04-21T06:14:18;100922.47;;;22.33;100.00
56402;BME280;42299;35.160;26.100;2023-04-21T06:15:41;100921.31;;;22.41;100.00
56402;BME280;42299;35.160;26.100;2023-04-21T06:17:03;100920.16;;;22.50;100.00
56402;BME280;42299;35.160;26.100;2023-04-21T06:18:26;100921.66;;;22.58;100.00
56402;BME280;42299;35.160;26.100;2023-04-21T06:19:48;100923.41;;;22.61;100.00
56402;BME280;42299;35.160;26.100;2023-04-21T06:21:13;100922.53;;;22.59;100.00
56402;BME280;42299;35.160;26.100;2023-04-21T06:22:35;100928.56;;;22.67;100.00
56402;BME280;42299;35.160;26.100;2023-04-21T06:23:58;100932.78;;;22.77;100.00
56402;BME280;42299;35.160;26.100;2023-04-21T06:25:22;100926.25;;;22.84;100.00
56402;BME280;42299;35.160;26.100;2023-04-21T06:26:44;100929.31;;;22.72;100.00
56402;BME280;42299;35.160;26.100;2023-04-21T06:28:06;100925.25;;;22.59;100.00
56402;BME280;42299;35.160;26.100;2023-04-21T06:29:29;100932.38;;;22.60;100.00
56402;BME280;42299;35.160;26.100;2023-04-21T06:30:51;100927.81;;;22.63;100.00
56402;BME280;42299;35.160;26.100;2023-04-21T06:32:13;100922.63;;;22.57;100.00
56402;BME280;42299;35.160;26.100;2023-04-21T06:33:36;100922.97;;;22.45;100.00
56402;BME280;42299;35.160;26.100;2023-04-21T06:34:58;100920.53;;;22.38;100.00
56402;BME280;42299;35.160;26.100;2023-04-21T06:36:21;100922.56;;;22.30;100.00
56402;BME280;42299;35.160;26.100;2023-04-21T06:37:43;100918.50;;;22.16;100.00
56402;BME280;42299;35.160;26.100;2023-04-21T06:39:05;100920.63;;;22.05;100.00
56402;BME280;42299;35.160;26.100;2023-04-21T06:40:28;100915.34;;;22.01;100.00
56402;BME280;42299;35.160;26.100;2023-04-21T06:41:51;100922.47;;;22.03;100.00
56402;BME280;42299;35.160;26.100;2023-04-21T06:43:13;100917.94;;;22.05;100.00
56402;BME280;42299;35.160;26.100;2023-04-21T06:44:36;100920.47;;;22.10;100.00
56402;BME280;42299;35.160;26.100;2023-04-21T06:45:58;100923.66;;;22.24;100.00
56402;BME280;42299;35.160;26.100;2023-04-21T06:47:21;100913.28;;;22.40;100.00
56402;BME280;42299;35.160;26.100;2023-04-21T06:48:43;100909.06;;;22.60;100.00
56402;BME280;42299;35.160;26.100;2023-04-21T06:50:06;100910.25;;;22.80;100.00
56402;BME280;42299;35.160;26.100;2023-04-21T06:51:28;100910.66;;;22.95;100.00
56402;BME280;42299;35.160;26.100;2023-04-21T06:52:51;100923.75;;;23.06;100.00
56402;BME280;42299;35.160;26.100;2023-04-21T06:54:14;100915.59;;;23.09;100.00
56402;BME280;42299;35.160;26.100;2023-04-21T06:55:38;100921.53;;;23.19;100.00
56402;BME280;42299;35.160;26.100;2023-04-21T06:57:00;100923.78;;;23.31;100.00
56402;BME280;42299;35.160;26.100;2023-04-21T06:58:22;100922.56;;;23.41;99.91
56402;BME280;42299;35.160;26.100;2023-04-21T06:59:45;100928.66;;;23.48;96.98